Time;durP1;ratioP1;P1;durP2;ratioP2;P2;SDS_P1;SDS_P2;PMS_P1;PMS_P2;Temp;Humidity;BMP_temperature;BMP_pressure;BME280_temperature;BME280_humidity;BME280_pressure;Samples;Min_cycle;Max_cycle;Signal;HPM_P1;HPM_P2
2022/05/10 00:02:13;;;;;;;7.60;5.13;;;;;;;22.65;41.13;101981.69;5094734;28;20273;-60
2022/05/10 00:04:40;;;;;;;8.18;5.40;;;;;;;22.65;41.21;101971.06;5095116;28;20123;-59
2022/05/10 00:07:05;;;;;;;8.13;5.18;;;;;;;22.64;41.40;101982.69;5095015;28;20039;-60
2022/05/10 00:09:31;;;;;;;8.25;5.15;;;;;;;22.64;41.18;101969.41;5094550;28;20383;-59
2022/05/10 00:11:57;;;;;;;8.38;5.13;;;;;;;22.62;41.16;101968.66;5094669;28;20047;-60
2022/05/10 00:14:27;;;;;;;7.07;5.18;;;;;;;22.61;41.20;101969.66;5095039;28;20054;-60
2022/05/10 00:16:55;;;;;;;7.45;4.93;;;;;;;22.59;41.57;101969.78;5093786;28;20036;-60
2022/05/10 00:19:22;;;;;;;6.50;4.90;;;;;;;22.59;41.47;101964.47;5094874;28;20055;-60
2022/05/10 00:21:48;;;;;;;8.40;5.30;;;;;;;22.59;41.46;101958.31;5094777;28;20117;-60
2022/05/10 00:24:14;;;;;;;6.95;5.00;;;;;;;22.59;41.13;101963.63;5094253;28;20040;-60
2022/05/10 00:26:40;;;;;;;7.28;5.30;;;;;;;22.58;41.36;101959.28;5094969;28;20081;-60
2022/05/10 00:29:06;;;;;;;7.05;5.10;;;;;;;22.58;41.12;101954.81;5094492;28;20020;-60
2022/05/10 00:31:31;;;;;;;8.52;5.43;;;;;;;22.57;41.11;101953.13;5093848;28;20024;-60
2022/05/10 00:33:59;;;;;;;6.75;5.05;;;;;;;22.57;41.02;101947.81;5094355;28;20107;-61
2022/05/10 00:36:24;;;;;;;6.85;5.28;;;;;;;22.56;41.51;101945.28;5094491;28;20374;-60
2022/05/10 00:38:50;;;;;;;8.52;5.10;;;;;;;22.57;41.42;101949.63;5093625;28;20020;-59
2022/05/10 00:41:27;;;;;;;8.52;5.35;;;;;;;22.55;40.97;101947.09;5094610;28;20032;-60
2022/05/10 00:44:02;;;;;;;7.35;5.10;;;;;;;22.55;41.13;101947.09;5093939;28;20555;-60
2022/05/10 00:46:40;;;;;;;8.45;5.72;;;;;;;22.54;41.19;101937.44;5093642;28;20023;-59
2022/05/10 00:49:29;;;;;;;7.68;5.55;;;;;;;22.53;41.31;101940.22;5093969;28;20028;-59
2022/05/10 00:52:18;;;;;;;7.03;5.05;;;;;;;22.53;41.30;101940.22;5093422;28;20047;-59
2022/05/10 00:54:57;;;;;;;7.88;5.35;;;;;;;22.51;41.09;101929.72;5094243;28;20020;-59
2022/05/10 00:57:28;;;;;;;7.22;4.90;;;;;;;22.52;41.42;101935.88;5094668;28;20463;-60
2022/05/10 01:00:05;;;;;;;8.65;5.20;;;;;;;22.50;41.24;101922.72;5093322;28;20032;-59
2022/05/10 01:02:58;;;;;;;8.82;5.13;;;;;;;22.49;41.43;101923.69;5094467;28;20034;-59
2022/05/10 01:06:07;;;;;;;8.20;5.22;;;;;;;22.49;41.14;101925.50;5093987;28;20028;-59
2022/05/10 01:08:58;;;;;;;6.95;5.32;;;;;;;22.46;41.21;101919.50;5031814;28;20025;-59
2022/05/10 01:11:42;;;;;;;6.60;5.28;;;;;;;22.46;41.29;101923.94;5031578;28;20470;-59
2022/05/10 01:14:16;;;;;;;7.35;5.05;;;;;;;22.45;41.31;101920.44;5080242;28;20040;-59
2022/05/10 01:16:42;;;;;;;8.25;5.53;;;;;;;22.45;40.97;101920.44;5093526;28;20040;-58
2022/05/10 01:19:07;;;;;;;7.45;5.10;;;;;;;22.45;41.42;101919.63;5093361;28;20039;-59
2022/05/10 01:21:48;;;;;;;6.90;5.22;;;;;;;22.44;41.28;101910.78;5092885;28;20105;-59
2022/05/10 01:24:13;;;;;;;8.70;5.28;;;;;;;22.44;41.17;101915.25;5093523;28;20391;-60
2022/05/10 01:26:59;;;;;;;7.27;5.57;;;;;;;22.42;41.14;101909.25;5093082;28;20020;-60
2022/05/10 01:29:31;;;;;;;8.85;5.18;;;;;;;22.43;41.43;101905.59;5093912;28;20024;-60
2022/05/10 01:34:46;;;;;;;7.07;5.15;;;;;;;22.40;41.21;101898.75;5093000;28;20495;-60
2022/05/10 01:37:17;;;;;;;9.13;5.50;;;;;;;22.39;41.27;101897.06;5093351;28;20016;-60
2022/05/10 01:39:50;;;;;;;7.43;5.53;;;;;;;22.39;41.32;101894.41;5093739;28;20020;-60
2022/05/10 01:42:22;;;;;;;7.17;5.20;;;;;;;22.38;41.25;101900.69;5092878;28;20032;-60
2022/05/10 01:45:01;;;;;;;8.77;5.47;;;;;;;22.38;41.19;101895.38;5093293;28;20036;-59
2022/05/10 01:47:36;;;;;;;7.38;5.30;;;;;;;22.38;41.22;101892.72;5093541;28;20028;-60
2022/05/10 01:50:06;;;;;;;8.85;5.47;;;;;;;22.36;41.15;101883.19;5092849;28;20028;-61
2022/05/10 01:52:49;;;;;;;8.75;4.95;;;;;;;22.35;41.30;101879.72;5093383;28;20154;-60
2022/05/10 01:55:24;;;;;;;7.38;5.28;;;;;;;22.35;41.26;101874.41;5092503;28;20031;-59
2022/05/10 01:57:52;;;;;;;6.13;4.82;;;;;;;22.35;41.18;101873.53;5093005;28;20016;-59
2022/05/10 02:00:22;;;;;;;7.82;5.10;;;;;;;22.35;41.41;101873.53;5093170;28;20020;-60
2022/05/10 02:03:09;;;;;;;8.88;5.50;;;;;;;22.34;41.27;101877.19;5091774;28;20028;-59
2022/05/10 02:05:47;;;;;;;7.90;5.38;;;;;;;22.34;41.24;101877.19;5092943;28;20024;-60
2022/05/10 02:08:23;;;;;;;7.10;5.03;;;;;;;22.33;41.21;101863.03;5092574;28;20028;-59
2022/05/10 02:10:53;;;;;;;9.07;5.47;;;;;;;22.33;41.43;101864.84;5092121;28;20157;-59
2022/05/10 02:13:29;;;;;;;8.68;5.45;;;;;;;22.32;41.23;101865.81;5093040;28;20103;-59
2022/05/10 02:16:07;;;;;;;7.18;5.60;;;;;;;22.32;41.45;101865.81;5091753;28;20039;-59
2022/05/10 02:18:41;;;;;;;8.20;5.50;;;;;;;22.30;41.25;101860.63;5093106;28;20052;-59
2022/05/10 02:21:16;;;;;;;8.55;5.40;;;;;;;22.32;41.14;101860.50;5092728;28;20024;-60
2022/05/10 02:23:51;;;;;;;8.48;5.25;;;;;;;22.31;41.32;101857.03;5092160;28;20032;-60
2022/05/10 02:26:23;;;;;;;8.00;4.90;;;;;;;22.28;41.11;101843.97;5093074;28;20035;-59
2022/05/10 02:28:59;;;;;;;8.20;5.50;;;;;;;22.30;41.29;101847.34;5092429;28;20352;-60
2022/05/10 02:31:31;;;;;;;8.90;5.40;;;;;;;22.28;41.26;101846.63;5092208;28;20028;-60
2022/05/10 02:33:57;;;;;;;7.85;5.25;;;;;;;22.28;41.38;101844.78;5092606;28;20078;-59
2022/05/10 02:36:22;;;;;;;6.57;4.80;;;;;;;22.27;41.46;101843.13;5092862;28;20060;-59
2022/05/10 02:38:53;;;;;;;8.37;5.53;;;;;;;22.27;41.52;101840.47;5091880;28;20056;-59
2022/05/10 02:41:22;;;;;;;6.55;5.18;;;;;;;22.28;41.34;101838.66;5092632;28;20016;-59
2022/05/10 02:44:00;;;;;;;7.45;5.28;;;;;;;22.26;41.34;101832.63;5092815;28;20043;-60
2022/05/10 02:46:26;;;;;;;6.70;5.03;;;;;;;22.25;41.33;101829.13;5092784;28;20065;-60
2022/05/10 02:48:52;;;;;;;8.45;5.75;;;;;;;22.25;41.38;101836.25;5092327;28;20387;-60
2022/05/10 02:51:19;;;;;;;8.35;5.47;;;;;;;22.24;41.19;101824.81;5091829;28;20107;-58
2022/05/10 02:53:45;;;;;;;8.57;4.95;;;;;;;22.25;41.50;101822.97;5092573;28;20074;-58
2022/05/10 02:56:14;;;;;;;7.60;5.13;;;;;;;22.24;41.25;101819.50;5092201;28;20028;-58
2022/05/10 02:58:57;;;;;;;7.35;5.25;;;;;;;22.24;41.40;101814.19;5091938;28;20028;-59
2022/05/10 03:01:41;;;;;;;7.33;4.90;;;;;;;22.24;41.22;101814.19;5092659;28;20107;-60
2022/05/10 03:04:09;;;;;;;7.28;5.05;;;;;;;22.23;41.36;101816.97;5092168;28;20032;-60
2022/05/10 03:06:36;;;;;;;7.10;5.00;;;;;;;22.22;41.49;101810.81;5091971;28;20032;-60
2022/05/10 03:09:02;;;;;;;7.45;5.30;;;;;;;22.21;41.49;101809.13;5092318;28;20028;-60
2022/05/10 03:11:28;;;;;;;7.43;5.45;;;;;;;22.23;41.39;101801.03;5092587;28;20028;-59
2022/05/10 03:13:53;;;;;;;7.22;4.97;;;;;;;22.22;41.43;101802.00;5092234;28;20371;-59
2022/05/10 03:16:23;;;;;;;7.72;5.63;;;;;;;22.20;41.21;101799.47;5096023;28;20087;-59
2022/05/10 03:18:48;;;;;;;7.50;5.38;;;;;;;22.21;41.30;101797.66;5095747;28;20349;-60
2022/05/10 03:21:14;;;;;;;6.47;4.65;;;;;;;22.21;41.59;101797.66;5095410;28;20024;-60
2022/05/10 03:23:39;;;;;;;7.07;5.20;;;;;;;22.19;41.67;101799.59;5095775;28;20038;-59
2022/05/10 03:26:05;;;;;;;7.97;5.30;;;;;;;22.20;41.35;101798.63;5095581;28;20020;-59
2022/05/10 03:28:31;;;;;;;6.70;5.00;;;;;;;22.19;41.49;101794.28;5095898;28;20024;-60
2022/05/10 03:30:56;;;;;;;7.43;5.20;;;;;;;22.19;41.55;101789.84;5095740;28;20039;-59
2022/05/10 03:33:22;;;;;;;6.32;4.75;;;;;;;22.19;41.31;101787.19;5095169;28;20031;-60
2022/05/10 03:35:47;;;;;;;8.77;5.57;;;;;;;22.18;41.56;101782.84;5096079;28;20380;-59
2022/05/10 03:38:15;;;;;;;8.30;5.53;;;;;;;22.18;41.35;101782.84;5095820;28;20020;-59
2022/05/10 03:40:41;;;;;;;6.90;5.15;;;;;;;22.18;41.41;101782.00;5095001;28;20024;-59
2022/05/10 03:43:10;;;;;;;8.35;5.20;;;;;;;22.17;41.62;101783.78;5095351;28;20047;-59
2022/05/10 03:45:36;;;;;;;7.40;5.53;;;;;;;22.17;41.42;101782.97;5095720;28;20031;-60
2022/05/10 03:48:02;;;;;;;7.75;5.30;;;;;;;22.18;41.42;101777.53;5094358;28;20011;-59
2022/05/10 03:50:27;;;;;;;6.45;4.70;;;;;;;22.18;41.64;101782.00;5095746;28;20099;-59
2022/05/10 03:52:53;;;;;;;6.45;4.88;;;;;;;22.17;41.40;101777.66;5095470;28;20077;-59
2022/05/10 03:55:24;;;;;;;6.88;5.00;;;;;;;22.17;41.63;101773.16;5094760;28;20024;-59
2022/05/10 03:57:51;;;;;;;7.28;5.38;;;;;;;22.16;41.59;101770.66;5095178;28;20030;-58
2022/05/10 04:00:29;;;;;;;7.65;4.95;;;;;;;22.16;41.53;101770.66;5095253;28;20017;-59
2022/05/10 04:02:57;;;;;;;7.55;5.22;;;;;;;22.15;41.76;101769.81;5094358;28;20038;-59
2022/05/10 04:05:24;;;;;;;7.03;5.40;;;;;;;22.15;41.38;101772.47;5095394;28;20028;-59
2022/05/10 04:07:49;;;;;;;8.88;5.22;;;;;;;22.15;41.43;101772.47;5094915;28;20027;-59
2022/05/10 04:10:17;;;;;;;6.68;4.78;;;;;;;22.15;41.45;101759.19;5094473;28;20024;-60
2022/05/10 04:12:42;;;;;;;7.22;5.10;;;;;;;22.15;41.46;101768.97;5094942;28;20464;-59
2022/05/10 04:15:10;;;;;;;7.82;5.40;;;;;;;22.15;41.70;101769.81;5094511;28;20034;-59
2022/05/10 04:17:35;;;;;;;7.57;5.15;;;;;;;22.15;41.59;101766.31;5094506;28;20063;-59
2022/05/10 04:20:06;;;;;;;8.88;5.35;;;;;;;22.14;41.59;101760.16;5094748;28;20054;-59
2022/05/10 04:22:31;;;;;;;8.20;5.00;;;;;;;22.15;41.80;101764.50;5094019;28;20028;-59
2022/05/10 04:24:56;;;;;;;6.43;4.82;;;;;;;22.14;41.56;101765.47;5094041;28;20039;-60
2022/05/10 04:27:21;;;;;;;8.60;5.20;;;;;;;22.13;41.71;101769.09;5094723;28;20028;-59
2022/05/10 04:29:47;;;;;;;6.33;5.00;;;;;;;22.14;41.46;101769.94;5093911;28;20028;-60
2022/05/10 04:32:12;;;;;;;8.52;5.15;;;;;;;22.14;41.65;101760.16;5094579;28;20025;-60
2022/05/10 04:34:37;;;;;;;7.30;4.95;;;;;;;22.15;41.56;101758.34;5094783;28;20032;-59
2022/05/10 04:37:03;;;;;;;7.30;5.38;;;;;;;22.14;41.64;101762.81;5093539;28;20020;-59
2022/05/10 04:41:24;;;;;;;8.18;4.80;;;;;;;22.14;41.61;101759.31;5094658;28;20020;-59
2022/05/10 04:42:13;;;;;;;6.78;5.05;;;;;;;22.13;41.54;101760.28;5094551;28;20028;-58
2022/05/10 04:44:39;;;;;;;7.43;4.87;;;;;;;22.13;41.54;101761.16;5093601;28;20028;-59
2022/05/10 04:47:04;;;;;;;6.32;5.13;;;;;;;22.13;41.58;101758.50;5094029;28;20307;-60
2022/05/10 04:49:29;;;;;;;7.93;5.40;;;;;;;22.14;41.86;101754.00;5094513;28;20154;-59
2022/05/10 04:51:57;;;;;;;6.40;4.90;;;;;;;22.13;41.70;101749.66;5093124;28;20028;-59
2022/05/10 04:54:22;;;;;;;7.03;5.03;;;;;;;22.11;41.59;101749.78;5094076;28;20020;-59
2022/05/10 04:56:47;;;;;;;7.72;5.43;;;;;;;22.10;41.68;101748.97;5093838;28;20020;-60
2022/05/10 04:59:12;;;;;;;7.00;5.20;;;;;;;22.11;41.66;101747.13;5093096;28;20027;-59
2022/05/10 05:01:38;;;;;;;8.63;5.80;;;;;;;22.13;41.90;101747.00;5094005;28;20069;-60
2022/05/10 05:04:04;;;;;;;7.30;5.38;;;;;;;22.12;41.75;101746.19;5093633;28;20294;-60
2022/05/10 05:06:30;;;;;;;7.57;5.43;;;;;;;22.12;41.71;101745.34;5093200;28;20020;-60
2022/05/10 05:08:55;;;;;;;7.15;4.97;;;;;;;22.12;41.74;101745.34;5093652;28;20099;-60
2022/05/10 05:11:21;;;;;;;6.25;4.85;;;;;;;22.12;41.75;101754.13;5093824;28;20107;-61
2022/05/10 05:13:46;;;;;;;7.50;4.90;;;;;;;22.13;41.97;101758.50;5093072;28;20074;-59
2022/05/10 05:16:14;;;;;;;6.30;5.22;;;;;;;22.12;41.88;101755.97;5093300;28;20040;-59
2022/05/10 05:18:39;;;;;;;7.47;5.40;;;;;;;22.12;42.04;101748.84;5093284;28;20028;-59
2022/05/10 05:21:07;;;;;;;6.78;5.30;;;;;;;22.12;41.85;101751.50;5093341;28;20065;-59
2022/05/10 05:23:33;;;;;;;8.98;5.32;;;;;;;22.12;41.90;101751.50;5093473;28;20357;-59
2022/05/10 05:25:58;;;;;;;8.15;5.40;;;;;;;22.12;41.93;101756.78;5092408;28;20089;-59
2022/05/10 05:28:23;;;;;;;7.10;4.80;;;;;;;22.14;41.84;101756.66;5093627;28;20066;-58
2022/05/10 05:30:50;;;;;;;7.73;5.20;;;;;;;22.12;41.83;101754.13;5093238;28;20280;-59
2022/05/10 05:33:16;;;;;;;6.47;4.53;;;;;;;22.13;41.94;101754.97;5092677;28;20459;-60
2022/05/10 05:35:41;;;;;;;8.40;5.15;;;;;;;22.14;42.05;101760.16;5093347;28;20035;-60
2022/05/10 05:38:09;;;;;;;6.60;4.80;;;;;;;22.14;41.80;101754.00;5092345;28;20024;-59
2022/05/10 05:40:37;;;;;;;6.63;4.95;;;;;;;22.14;41.92;101757.50;5092440;28;20032;-60
2022/05/10 05:43:02;;;;;;;5.93;4.68;;;;;;;22.14;41.96;101754.00;5092924;28;20039;-60
2022/05/10 05:45:28;;;;;;;6.15;4.97;;;;;;;22.13;42.00;101752.31;5093207;28;20032;-60
2022/05/10 05:47:56;;;;;;;6.85;4.88;;;;;;;22.14;41.93;101751.34;5092239;28;20115;-60
2022/05/10 05:50:24;;;;;;;6.28;4.63;;;;;;;22.14;42.17;101749.53;5093195;28;20020;-60
2022/05/10 05:52:50;;;;;;;6.85;4.60;;;;;;;22.14;42.03;101749.53;5092527;28;20150;-60
2022/05/10 05:55:17;;;;;;;7.07;4.72;;;;;;;22.14;41.85;101746.06;5092572;28;20020;-60
2022/05/10 05:57:43;;;;;;;6.00;4.80;;;;;;;22.17;42.07;101746.63;5093115;28;20027;-59
2022/05/10 06:00:13;;;;;;;8.27;6.72;;;;;;;22.10;42.70;101738.34;5092846;28;20028;-60
2022/05/10 06:02:39;;;;;;;9.32;5.63;;;;;;;22.09;42.47;101734.00;5092195;28;20024;-61
2022/05/10 06:05:07;;;;;;;5.80;4.53;;;;;;;22.06;42.44;101723.66;5092645;28;20356;-59
2022/05/10 06:07:33;;;;;;;5.82;4.63;;;;;;;22.07;42.42;101727.97;5092722;28;20031;-60
2022/05/10 06:09:58;;;;;;;6.90;4.65;;;;;;;22.05;42.69;101739.72;5091864;28;20024;-60
2022/05/10 06:12:24;;;;;;;8.02;5.55;;;;;;;22.06;42.46;101733.41;5093025;28;20059;-60
2022/05/10 06:14:51;;;;;;;5.90;4.07;;;;;;;22.08;42.50;101734.16;5092628;28;20028;-60
2022/05/10 06:17:17;;;;;;;6.07;4.18;;;;;;;22.08;42.65;101742.13;5091812;28;20051;-60
2022/05/10 06:19:43;;;;;;;5.68;4.18;;;;;;;22.08;42.52;101734.97;5092746;28;20028;-60
2022/05/10 06:22:10;;;;;;;5.65;4.10;;;;;;;22.09;42.59;101734.00;5091799;28;20357;-60
2022/05/10 06:24:36;;;;;;;5.90;3.70;;;;;;;22.12;42.64;101735.56;5092759;28;20039;-62
2022/05/10 06:27:03;;;;;;;6.57;4.30;;;;;;;22.12;42.63;101734.72;5092538;28;20024;-61
2022/05/10 06:29:33;;;;;;;6.82;4.25;;;;;;;22.13;42.44;101733.75;5091877;28;20020;-61
2022/05/10 06:31:58;;;;;;;6.55;4.10;;;;;;;22.14;42.76;101733.59;5092353;28;20030;-61
2022/05/10 06:34:23;;;;;;;6.10;4.40;;;;;;;22.14;42.59;101724.81;5092757;28;20021;-60
2022/05/10 06:36:49;;;;;;;7.87;4.23;;;;;;;22.12;42.60;101732.06;5091357;28;20468;-60
2022/05/10 06:39:14;;;;;;;5.00;3.92;;;;;;;22.13;42.97;101731.94;5092648;28;20360;-61
2022/05/10 06:41:39;;;;;;;5.35;3.80;;;;;;;22.13;42.98;101731.09;5092450;28;20028;-61
2022/05/10 06:44:05;;;;;;;5.90;3.85;;;;;;;22.13;42.86;101725.78;5091439;28;20053;-59
2022/05/10 06:46:32;;;;;;;5.40;3.58;;;;;;;22.14;43.00;101716.84;5092553;28;20476;-59
2022/05/10 06:48:59;;;;;;;6.00;4.28;;;;;;;22.15;43.14;101718.53;5094848;28;20032;-59
2022/05/10 06:51:25;;;;;;;5.53;3.80;;;;;;;22.15;43.09;101716.72;5095779;28;20085;-59
2022/05/10 06:53:51;;;;;;;6.43;4.00;;;;;;;22.15;43.13;101716.72;5096178;28;20353;-59
2022/05/10 06:56:17;;;;;;;5.95;4.10;;;;;;;22.17;43.13;101713.94;5096604;28;20020;-59
2022/05/10 06:58:42;;;;;;;5.70;3.80;;;;;;;22.19;43.21;101717.28;5095668;28;20503;-60
2022/05/10 07:01:14;;;;;;;5.43;3.72;;;;;;;22.18;43.35;101716.47;5096301;28;20433;-62
2022/05/10 07:03:47;;;;;;;5.72;3.85;;;;;;;22.18;43.52;101708.50;5096279;28;20108;-62
2022/05/10 07:06:14;;;;;;;4.73;3.83;;;;;;;22.18;43.85;101710.31;5095306;28;20034;-63
2022/05/10 07:08:39;;;;;;;5.50;3.90;;;;;;;22.19;44.12;101707.53;5096908;28;20110;-63
2022/05/10 07:11:08;;;;;;;5.72;3.97;;;;;;;22.22;43.84;101704.63;5096923;28;20020;-62
2022/05/10 07:13:34;;;;;;;6.43;3.88;;;;;;;22.27;43.73;101706.84;5099163;28;20383;-62
2022/05/10 07:16:02;;;;;;;8.88;4.10;;;;;;;22.31;43.60;101702.19;5096659;28;20432;-60
2022/05/10 07:18:27;;;;;;;6.88;3.65;;;;;;;22.36;43.69;101702.63;5096446;28;20064;-60
2022/05/10 07:20:52;;;;;;;6.85;4.30;;;;;;;22.38;43.56;101695.34;5096079;28;20054;-60
2022/05/10 07:23:24;;;;;;;5.80;3.65;;;;;;;22.38;43.25;101698.00;5096235;28;20489;-59
2022/05/10 07:25:49;;;;;;;6.78;3.90;;;;;;;22.38;43.67;101690.91;5094816;28;20475;-62
2022/05/10 07:28:16;;;;;;;10.93;3.70;;;;;;;22.41;43.35;101690.63;5095992;28;20031;-61
2022/05/10 07:30:42;;;;;;;6.25;3.80;;;;;;;22.43;43.21;101688.69;5095792;28;20100;-62
2022/05/10 07:33:07;;;;;;;7.55;3.83;;;;;;;22.48;43.20;101690.06;5095130;28;20446;-62
2022/05/10 07:38:19;;;;;;;8.43;3.90;;;;;;;22.54;42.77;101693.06;5097255;28;20330;-62
2022/05/10 07:40:47;;;;;;;6.13;3.70;;;;;;;22.57;42.71;101683.97;5096558;28;20629;-63
2022/05/10 07:43:14;;;;;;;7.20;3.58;;;;;;;22.63;42.77;101689.59;5095137;28;20028;-61
2022/05/10 07:45:45;;;;;;;7.60;3.78;;;;;;;22.67;42.64;101681.34;5095662;28;20115;-62
2022/05/10 07:48:10;;;;;;;7.75;3.65;;;;;;;22.70;42.17;101683.72;5094606;28;20024;-63
2022/05/10 07:50:39;;;;;;;8.07;3.70;;;;;;;22.73;42.06;101676.34;5095633;28;20028;-62
2022/05/10 07:53:07;;;;;;;5.82;3.50;;;;;;;22.77;42.18;101683.06;5095184;28;20482;-62
2022/05/10 07:55:34;;;;;;;5.35;3.47;;;;;;;22.77;42.44;101680.41;5095118;28;20106;-62
2022/05/10 07:57:59;;;;;;;5.45;3.50;;;;;;;22.79;42.16;101682.94;5095175;28;20020;-62
2022/05/10 08:00:24;;;;;;;5.53;3.40;;;;;;;22.80;42.04;101685.44;5094039;28;20030;-63
2022/05/10 08:02:50;;;;;;;5.90;3.70;;;;;;;22.79;41.90;101681.09;5095227;28;20094;-63
2022/05/10 08:05:21;;;;;;;5.22;3.70;;;;;;;22.82;41.93;101686.16;5095359;28;20273;-63
2022/05/10 08:07:47;;;;;;;6.28;3.22;;;;;;;22.82;41.84;101686.16;5094464;28;20147;-63
2022/05/10 08:10:17;;;;;;;6.55;3.80;;;;;;;22.82;41.83;101686.16;5095043;28;20078;-64
2022/05/10 08:12:42;;;;;;;6.55;3.40;;;;;;;22.82;41.68;101682.66;5094984;28;20085;-63
2022/05/10 08:15:09;;;;;;;5.45;3.40;;;;;;;22.80;41.91;101684.63;5093863;28;20967;-63
2022/05/10 08:17:35;;;;;;;8.32;3.53;;;;;;;22.82;41.70;101678.19;5095163;28;20058;-65
2022/05/10 08:20:00;;;;;;;5.97;3.22;;;;;;;22.79;42.03;101678.44;5094631;28;20052;-64
2022/05/10 08:22:25;;;;;;;4.60;2.80;;;;;;;22.79;41.76;101675.78;5094162;28;20451;-64
2022/05/10 08:24:51;;;;;;;5.23;3.40;;;;;;;22.79;41.75;101682.94;5094371;28;20028;-64
2022/05/10 08:27:16;;;;;;;6.50;3.28;;;;;;;22.77;41.67;101675.09;5094617;28;20794;-63
2022/05/10 08:29:42;;;;;;;5.28;3.25;;;;;;;22.78;42.42;101678.59;5094191;28;20024;-63
2022/05/10 08:32:08;;;;;;;4.85;3.10;;;;;;;22.76;41.96;101668.09;5094558;28;20039;-64
2022/05/10 08:34:35;;;;;;;4.60;3.33;;;;;;;22.77;41.65;101664.47;5094658;28;20103;-62
2022/05/10 08:37:04;;;;;;;5.25;3.20;;;;;;;22.77;41.73;101674.25;5093607;28;20028;-63
2022/05/10 08:39:30;;;;;;;5.53;3.50;;;;;;;22.76;41.65;101665.44;5094590;28;20035;-62
2022/05/10 08:41:59;;;;;;;6.63;3.60;;;;;;;22.75;41.85;101658.44;5094102;28;20020;-63
2022/05/10 08:44:27;;;;;;;5.25;3.20;;;;;;;22.75;42.04;101655.78;5093899;28;20415;-63
2022/05/10 08:46:58;;;;;;;5.00;3.25;;;;;;;22.73;41.99;101655.09;5094075;28;20389;-63
2022/05/10 08:50:00;;;;;;;5.18;3.25;;;;;;;22.74;41.93;101654.09;5094424;28;20027;-63
2022/05/10 08:52:31;;;;;;;5.07;3.63;;;;;;;22.73;41.75;101657.75;5084067;28;20060;-63
2022/05/10 08:55:00;;;;;;;4.72;3.40;;;;;;;22.73;41.92;101655.09;5094105;28;20056;-63
2022/05/10 08:57:53;;;;;;;6.35;3.72;;;;;;;22.72;41.85;101647.25;5093460;28;20032;-63
2022/05/10 09:00:40;;;;;;;4.75;2.92;;;;;;;22.72;41.81;101645.44;5094008;28;20421;-64
2022/05/10 09:03:22;;;;;;;5.88;3.25;;;;;;;22.70;41.74;101644.75;5093595;28;20486;-62
2022/05/10 09:05:49;;;;;;;5.15;3.38;;;;;;;22.70;41.63;101642.09;5093581;28;20408;-62
2022/05/10 09:08:36;;;;;;;5.15;3.40;;;;;;;22.69;41.90;101642.22;5094157;28;20026;-63
2022/05/10 09:11:04;;;;;;;5.13;3.40;;;;;;;22.70;41.64;101652.72;5093046;28;20058;-63
2022/05/10 09:13:32;;;;;;;6.28;3.20;;;;;;;22.68;41.74;101636.03;5094267;28;20134;-63
2022/05/10 09:16:04;;;;;;;4.80;3.30;;;;;;;22.69;41.63;101635.09;5093656;28;20044;-63
2022/05/10 09:18:35;;;;;;;5.15;3.53;;;;;;;22.68;41.77;101637.88;5093104;28;20024;-63
2022/05/10 09:21:00;;;;;;;4.70;3.22;;;;;;;22.67;41.85;101634.38;5093571;28;20030;-63
2022/05/10 09:23:39;;;;;;;5.25;3.30;;;;;;;22.67;41.94;101637.03;5093840;28;20106;-63
2022/05/10 09:26:05;;;;;;;4.80;3.08;;;;;;;22.66;41.91;101635.34;5092939;28;20066;-62
2022/05/10 09:28:48;;;;;;;5.93;2.97;;;;;;;22.66;42.03;101632.69;5093945;28;20031;-63
2022/05/10 09:36:54;;;;;;;;;;;;;;;22.66;42.23;101626.56;5093989;28;20035;-63
2022/05/10 09:39:33;;;;;;;4.22;3.13;;;;;;;22.64;41.97;101616.06;5092894;28;19912;-63
2022/05/10 09:41:59;;;;;;;5.40;3.58;;;;;;;22.64;41.91;101622.19;5093279;28;20024;-63
2022/05/10 09:44:30;;;;;;;4.82;3.42;;;;;;;22.63;42.02;101623.16;5093545;28;20043;-62
2022/05/10 09:47:15;;;;;;;5.97;3.30;;;;;;;22.62;42.06;101621.50;5092560;28;20076;-63
2022/05/10 09:49:41;;;;;;;5.68;3.10;;;;;;;22.59;42.05;101618.28;5093338;28;20059;-62
2022/05/10 09:52:17;;;;;;;6.03;3.40;;;;;;;22.60;42.27;101617.28;5092826;28;20059;-59
2022/05/10 09:54:43;;;;;;;6.15;3.40;;;;;;;22.55;42.68;101614.22;5093222;28;20028;-60
2022/05/10 09:57:26;;;;;;;4.53;3.28;;;;;;;22.57;42.52;101598.97;5093762;28;20023;-60
2022/05/10 09:59:51;;;;;;;5.25;3.03;;;;;;;22.62;42.89;101599.38;5094272;28;20028;-62
2022/05/10 10:02:37;;;;;;;6.40;3.50;;;;;;;22.65;42.81;101607.09;5094197;28;20053;-60
2022/05/10 10:05:25;;;;;;;6.10;3.25;;;;;;;22.73;42.49;101594.00;5096867;28;20020;-60
2022/05/10 10:07:53;;;;;;;6.13;3.17;;;;;;;22.74;42.58;101595.66;5094189;28;20027;-61
2022/05/10 10:10:31;;;;;;;5.80;3.55;;;;;;;22.78;42.22;101590.91;5095114;28;20024;-60
2022/05/10 10:12:57;;;;;;;7.35;3.30;;;;;;;22.83;42.11;101586.84;5094133;28;20090;-61
2022/05/10 10:15:42;;;;;;;5.07;3.38;;;;;;;22.89;42.15;101582.81;5093257;28;20048;-61
2022/05/10 10:18:11;;;;;;;7.20;3.15;;;;;;;22.92;41.95;101582.53;5094197;28;20467;-61
2022/05/10 10:20:41;;;;;;;6.47;3.13;;;;;;;22.97;42.15;101582.09;5095055;28;20491;-62
2022/05/10 10:23:20;;;;;;;5.93;3.47;;;;;;;23.01;41.65;101576.38;5093653;28;20036;-59
2022/05/10 10:25:52;;;;;;;5.22;3.20;;;;;;;23.05;41.73;101576.09;5092875;28;20036;-62
2022/05/10 10:28:24;;;;;;;5.28;3.17;;;;;;;23.07;41.85;101579.47;5092406;28;20089;-62
2022/05/10 10:31:04;;;;;;;5.30;3.08;;;;;;;23.08;41.86;101579.38;5093221;28;20020;-62
2022/05/10 10:33:36;;;;;;;7.95;3.33;;;;;;;23.09;42.06;101589.00;5093420;28;20035;-63
2022/05/10 10:36:16;;;;;;;6.45;3.00;;;;;;;23.09;42.16;101586.34;5091872;28;20107;-64
2022/05/10 10:39:22;;;;;;;6.53;3.35;;;;;;;23.08;42.03;101575.84;5094355;28;20061;-62
2022/05/10 10:41:53;;;;;;;5.18;3.15;;;;;;;23.07;41.72;101575.00;5082391;28;20067;-60
2022/05/10 10:44:25;;;;;;;8.38;3.28;;;;;;;23.09;42.08;101561.59;5091183;28;20043;-61
2022/05/10 10:47:00;;;;;;;6.45;3.13;;;;;;;23.11;41.76;101578.22;5092824;28;20020;-61
2022/05/10 10:49:53;;;;;;;8.55;3.10;;;;;;;23.12;42.08;101578.09;5092136;28;20028;-61
2022/05/10 10:52:18;;;;;;;7.88;3.00;;;;;;;23.13;41.96;101582.44;5093823;28;20058;-61
2022/05/10 10:54:46;;;;;;;6.05;3.60;;;;;;;23.15;42.05;101563.69;5092989;28;20028;-60
2022/05/10 10:57:41;;;;;;;6.65;2.97;;;;;;;23.15;42.12;101567.19;5091614;28;20032;-61
2022/05/10 11:00:17;;;;;;;4.60;2.95;;;;;;;23.17;42.15;101567.03;5092593;28;20032;-62
2022/05/10 11:02:59;;;;;;;7.32;3.00;;;;;;;23.17;41.89;101561.72;5092401;28;20032;-63
2022/05/10 11:05:34;;;;;;;5.40;2.90;;;;;;;23.17;42.03;101554.56;5091991;28;20031;-60
2022/05/10 11:08:23;;;;;;;4.45;2.72;;;;;;;23.17;41.83;101540.44;5092603;28;20425;-62
2022/05/10 11:11:04;;;;;;;8.43;3.40;;;;;;;23.17;42.20;101557.22;5091483;28;20035;-60
2022/05/10 11:13:54;;;;;;;5.03;2.88;;;;;;;23.21;41.63;101546.31;5092361;28;20040;-61
2022/05/10 11:16:34;;;;;;;6.95;3.00;;;;;;;23.23;41.83;101531.91;5092349;28;20044;-59
2022/05/10 11:19:17;;;;;;;5.28;2.80;;;;;;;23.25;41.60;101524.63;5091243;28;20028;-59
2022/05/10 11:21:53;;;;;;;5.03;3.10;;;;;;;23.25;41.68;101532.59;5092405;28;20031;-60
2022/05/10 11:24:38;;;;;;;6.00;3.13;;;;;;;23.27;41.75;101541.25;5091720;28;20036;-60
2022/05/10 11:27:16;;;;;;;4.85;2.80;;;;;;;23.27;41.55;101535.94;5060428;28;20039;-60
2022/05/10 11:30:13;;;;;;;5.18;2.92;;;;;;;23.27;41.67;101525.31;5092368;28;20051;-59
2022/05/10 11:33:04;;;;;;;5.55;2.88;;;;;;;23.27;41.48;101529.81;5078140;28;20036;-60
2022/05/10 11:36:15;;;;;;;6.50;2.92;;;;;;;23.26;41.66;101523.66;5093845;28;20024;-60
2022/05/10 11:39:01;;;;;;;5.55;3.03;;;;;;;23.26;41.46;101514.84;5094981;28;20107;-60
2022/05/10 11:41:36;;;;;;;6.72;3.42;;;;;;;23.23;41.50;101507.97;5095911;28;20030;-60
2022/05/10 11:44:37;;;;;;;11.00;3.30;;;;;;;23.23;41.33;101521.28;5095528;28;20056;-60
2022/05/10 11:47:25;;;;;;;5.70;3.13;;;;;;;23.22;41.38;101511.59;5094549;28;20031;-60
2022/05/10 11:50:14;;;;;;;5.32;3.00;;;;;;;23.21;41.24;101503.78;5095499;28;20033;-60
2022/05/10 11:52:58;;;;;;;5.70;3.22;;;;;;;23.20;41.37;101510.09;5094777;28;20501;-60
2022/05/10 11:55:34;;;;;;;8.30;3.20;;;;;;;23.18;41.23;101505.75;5095419;28;20027;-60